Time;durP1;ratioP1;P1;durP2;ratioP2;P2;SDS_P1;SDS_P2;PMS_P1;PMS_P2;Temp;Humidity;BMP_temperature;BMP_pressure;BME280_temperature;BME280_humidity;BME280_pressure;Samples;Min_cycle;Max_cycle;Signal;HPM_P1;HPM_P2
2022/09/02 00:01:02;;;;;;;;;;;14.00;99.90;;;;;;5072881;28;19967;-68
2022/09/02 00:03:33;;;;;;;;;;;14.00;99.90;;;;;;5073723;28;19923;-68
2022/09/02 00:05:59;;;;;;;;;;;14.00;99.90;;;;;;5061637;28;19934;-68
2022/09/02 00:08:24;;;;;;;;;;;14.00;99.90;;;;;;5066412;28;19920;-68
2022/09/02 00:10:50;;;;;;;;;;;13.90;99.90;;;;;;5074641;28;19936;-68
2022/09/02 00:13:18;;;;;;;;;;;13.90;99.90;;;;;;5075727;28;20014;-68
2022/09/02 00:15:45;;;;;;;;;;;13.90;99.90;;;;;;5086411;28;19935;-68
2022/09/02 00:18:11;;;;;;;;;;;13.80;99.90;;;;;;5073514;28;19920;-68
2022/09/02 00:20:37;;;;;;;;;;;13.80;99.90;;;;;;5070146;28;20366;-68
2022/09/02 00:23:03;;;;;;;;;;;13.70;99.90;;;;;;5073155;28;20384;-68
2022/09/02 00:25:28;;;;;;;;;;;13.70;99.90;;;;;;5086539;28;19924;-68
2022/09/02 00:27:54;;;;;;;;;;;13.70;99.90;;;;;;5073612;28;19925;-68
2022/09/02 00:30:19;;;;;;;;;;;13.60;99.90;;;;;;5091978;28;19997;-68
2022/09/02 00:32:45;;;;;;;;;;;13.60;99.90;;;;;;5057718;28;19935;-68
2022/09/02 00:35:10;;;;;;;;;;;13.60;99.90;;;;;;5093113;28;19932;-68
2022/09/02 00:40:05;;;;;;;;;;;13.50;99.90;;;;;;5049455;28;19951;-70
2022/09/02 00:42:31;;;;;;;;;;;13.50;99.90;;;;;;5034939;28;19921;-69
2022/09/02 00:44:57;;;;;;;;;;;13.50;99.90;;;;;;5034372;28;19931;-69
2022/09/02 00:47:23;;;;;;;;;;;13.40;99.90;;;;;;5018805;28;19925;-69
2022/09/02 00:49:50;;;;;;;;;;;13.40;99.90;;;;;;5033634;28;19955;-69
2022/09/02 00:52:32;;;;;;;;;;;13.40;99.90;;;;;;5033665;28;19939;-69
2022/09/02 00:54:57;;;;;;;;;;;13.30;99.90;;;;;;5036964;28;19924;-70
2022/09/02 00:57:26;;;;;;;;;;;13.30;99.90;;;;;;5034527;28;20389;-69
2022/09/02 00:59:55;;;;;;;;;;;13.20;99.90;;;;;;5033261;28;19923;-70
2022/09/02 01:02:24;;;;;;;;;;;13.20;99.90;;;;;;5034643;28;19932;-69
2022/09/02 01:04:49;;;;;;;;;;;13.20;99.90;;;;;;5051178;28;19929;-69
2022/09/02 01:07:15;;;;;;;;;;;13.20;99.90;;;;;;5034145;28;19921;-69
2022/09/02 01:09:40;;;;;;;;;;;13.20;99.90;;;;;;5051498;28;19959;-69
2022/09/02 01:12:06;;;;;;;;;;;13.10;99.90;;;;;;5041238;28;19925;-70
2022/09/02 01:14:33;;;;;;;;;;;13.10;99.90;;;;;;5033453;28;19931;-69
2022/09/02 01:17:00;;;;;;;;;;;13.10;99.90;;;;;;5031194;28;19924;-70
2022/09/02 01:19:29;;;;;;;;;;;13.10;99.90;;;;;;5032766;28;19920;-69
2022/09/02 01:21:55;;;;;;;;;;;13.10;99.90;;;;;;5034385;28;19971;-69
2022/09/02 01:24:22;;;;;;;;;;;13.00;99.90;;;;;;5034141;28;19927;-69
2022/09/02 01:26:50;;;;;;;;;;;13.00;99.90;;;;;;5033543;28;19971;-69
2022/09/02 01:29:16;;;;;;;;;;;13.00;99.90;;;;;;5048704;28;19925;-68
2022/09/02 01:31:42;;;;;;;;;;;12.90;99.90;;;;;;5034199;28;20588;-69
2022/09/02 01:34:07;;;;;;;;;;;12.90;99.90;;;;;;5045640;28;19925;-69
2022/09/02 01:36:36;;;;;;;;;;;12.90;99.90;;;;;;5050270;28;19927;-68
2022/09/02 01:39:01;;;;;;;;;;;12.90;99.90;;;;;;5046164;28;19951;-69
2022/09/02 01:41:27;;;;;;;;;;;12.90;99.90;;;;;;5029146;28;19925;-69
2022/09/02 01:43:53;;;;;;;;;;;12.90;99.90;;;;;;5050396;28;20398;-68
2022/09/02 01:46:19;;;;;;;;;;;12.90;99.90;;;;;;5029532;28;20008;-69
2022/09/02 01:48:44;;;;;;;;;;;12.90;99.90;;;;;;5033699;28;20000;-68
2022/09/02 01:51:14;;;;;;;;;;;12.90;99.90;;;;;;5033752;28;19925;-69
2022/09/02 01:53:39;;;;;;;;;;;12.90;99.90;;;;;;5032008;28;20317;-68
2022/09/02 01:56:05;;;;;;;;;;;12.80;99.90;;;;;;5031717;28;19921;-69
2022/09/02 01:58:30;;;;;;;;;;;12.80;99.90;;;;;;5050310;28;19921;-68
2022/09/02 02:00:56;;;;;;;;;;;12.80;99.90;;;;;;5032113;28;20011;-69
2022/09/02 02:03:21;;;;;;;;;;;12.70;99.90;;;;;;5013852;28;19960;-68
2022/09/02 02:05:47;;;;;;;;;;;12.70;99.90;;;;;;5051657;28;19921;-69
2022/09/02 02:08:12;;;;;;;;;;;12.70;99.90;;;;;;5031030;28;19925;-69
2022/09/02 02:10:39;;;;;;;;;;;12.70;99.90;;;;;;5033815;28;19935;-69
2022/09/02 02:13:04;;;;;;;;;;;12.60;99.90;;;;;;5036158;28;19924;-69
2022/09/02 02:15:30;;;;;;;;;;;12.60;99.90;;;;;;5033582;28;19970;-69
2022/09/02 02:17:55;;;;;;;;;;;12.60;99.90;;;;;;5048054;28;19935;-69
2022/09/02 02:20:21;;;;;;;;;;;12.70;99.90;;;;;;5031104;28;19947;-68
2022/09/02 02:22:47;;;;;;;;;;;12.60;99.90;;;;;;5026766;28;19924;-68
2022/09/02 02:25:14;;;;;;;;;;;12.60;99.90;;;;;;5050089;28;19932;-68
2022/09/02 02:27:39;;;;;;;;;;;12.60;99.90;;;;;;5051145;28;20023;-68
2022/09/02 02:30:06;;;;;;;;;;;12.60;99.90;;;;;;5035392;28;20023;-69
2022/09/02 02:32:31;;;;;;;;;;;12.60;99.90;;;;;;5031450;28;20003;-68
2022/09/02 02:34:57;;;;;;;;;;;12.60;99.90;;;;;;5024969;28;20011;-68
2022/09/02 02:37:23;;;;;;;;;;;12.60;99.90;;;;;;5030026;28;19921;-68
2022/09/02 02:39:48;;;;;;;;;;;12.60;99.90;;;;;;5032024;28;19932;-68
2022/09/02 02:42:14;;;;;;;;;;;12.60;99.90;;;;;;5049442;28;19928;-68
2022/09/02 02:44:39;;;;;;;;;;;12.50;99.90;;;;;;5031055;28;20405;-68
2022/09/02 02:47:06;;;;;;;;;;;12.50;99.90;;;;;;5054291;28;19927;-68
2022/09/02 02:49:35;;;;;;;;;;;12.50;99.90;;;;;;5034239;28;20419;-68
2022/09/02 02:52:01;;;;;;;;;;;12.50;99.90;;;;;;5032344;28;20378;-68
2022/09/02 02:54:26;;;;;;;;;;;12.50;99.90;;;;;;5047872;28;19982;-68
2022/09/02 02:56:51;;;;;;;;;;;12.40;99.90;;;;;;5031452;28;19920;-68
2022/09/02 02:59:17;;;;;;;;;;;12.40;99.90;;;;;;5047055;28;19921;-68
2022/09/02 03:01:42;;;;;;;;;;;12.40;99.90;;;;;;5031631;28;19925;-68
2022/09/02 03:04:08;;;;;;;;;;;12.40;99.90;;;;;;5034507;28;19987;-69
2022/09/02 03:06:34;;;;;;;;;;;12.40;99.90;;;;;;5014997;28;19928;-69
2022/09/02 03:09:00;;;;;;;;;;;12.40;99.90;;;;;;5034054;28;19925;-69
2022/09/02 03:11:26;;;;;;;;;;;12.30;99.90;;;;;;5048732;28;19925;-70
2022/09/02 03:13:52;;;;;;;;;;;12.30;99.90;;;;;;5034954;28;19925;-69
2022/09/02 03:16:18;;;;;;;;;;;12.30;99.90;;;;;;5035478;28;20353;-69
2022/09/02 03:18:45;;;;;;;;;;;12.30;99.90;;;;;;5035538;28;20384;-69
2022/09/02 03:21:11;;;;;;;;;;;12.20;99.90;;;;;;5032974;28;19956;-70
2022/09/02 03:23:37;;;;;;;;;;;12.20;99.90;;;;;;5018777;28;19932;-70
2022/09/02 03:26:07;;;;;;;;;;;12.20;99.90;;;;;;5048577;28;19925;-69
2022/09/02 03:28:33;;;;;;;;;;;12.20;99.90;;;;;;5051638;28;20010;-70
2022/09/02 03:30:58;;;;;;;;;;;12.10;99.90;;;;;;5048828;28;19975;-70
2022/09/02 03:33:24;;;;;;;;;;;12.10;99.90;;;;;;5023619;28;19940;-70
2022/09/02 03:35:49;;;;;;;;;;;12.10;99.90;;;;;;5035512;28;19925;-70
2022/09/02 03:38:14;;;;;;;;;;;12.10;99.90;;;;;;5039383;28;19936;-70
2022/09/02 03:40:40;;;;;;;;;;;12.00;99.90;;;;;;5033689;28;20366;-70
2022/09/02 03:43:06;;;;;;;;;;;12.00;99.90;;;;;;5035938;28;19921;-71
2022/09/02 03:45:32;;;;;;;;;;;12.00;99.90;;;;;;5018332;28;19924;-71
2022/09/02 03:47:58;;;;;;;;;;;12.00;99.90;;;;;;5035278;28;19940;-71
2022/09/02 03:50:24;;;;;;;;;;;12.00;99.90;;;;;;5049060;28;19925;-70
2022/09/02 03:52:50;;;;;;;;;;;11.90;99.90;;;;;;5025357;28;19928;-70
2022/09/02 03:55:17;;;;;;;;;;;11.90;99.90;;;;;;5048137;28;19928;-70
2022/09/02 03:57:42;;;;;;;;;;;11.90;99.90;;;;;;5035474;28;20394;-70
2022/09/02 04:00:08;;;;;;;;;;;11.80;99.90;;;;;;5034609;28;19920;-69
2022/09/02 04:02:34;;;;;;;;;;;11.90;99.90;;;;;;5049359;28;19920;-70
2022/09/02 04:04:59;;;;;;;;;;;11.90;99.90;;;;;;5035571;28;19925;-70
2022/09/02 04:07:25;;;;;;;;;;;11.90;99.90;;;;;;5053915;28;20011;-70
2022/09/02 04:09:50;;;;;;;;;;;11.90;99.90;;;;;;5011956;28;20274;-70
2022/09/02 04:12:16;;;;;;;;;;;11.90;99.90;;;;;;5052869;28;19921;-70
2022/09/02 04:14:41;;;;;;;;;;;11.80;99.90;;;;;;5031982;28;19940;-70
2022/09/02 04:17:07;;;;;;;;;;;11.80;99.90;;;;;;5048643;28;20371;-70
2022/09/02 04:19:32;;;;;;;;;;;11.80;99.90;;;;;;5049310;28;19921;-70
2022/09/02 04:21:58;;;;;;;;;;;11.70;99.90;;;;;;5033910;28;20351;-70
2022/09/02 04:24:23;;;;;;;;;;;11.70;99.90;;;;;;5047837;28;20369;-70
2022/09/02 04:26:49;;;;;;;;;;;11.70;99.90;;;;;;5047257;28;19940;-70
2022/09/02 04:29:14;;;;;;;;;;;11.70;99.90;;;;;;5016843;28;19964;-69
2022/09/02 04:31:40;;;;;;;;;;;11.70;99.90;;;;;;5033687;28;20350;-70
2022/09/02 04:34:06;;;;;;;;;;;11.60;99.90;;;;;;5029918;28;19979;-70
2022/09/02 04:36:31;;;;;;;;;;;11.60;99.90;;;;;;5035378;28;19975;-70
2022/09/02 04:38:58;;;;;;;;;;;11.60;99.90;;;;;;5017930;28;19925;-70
2022/09/02 04:41:25;;;;;;;;;;;11.60;99.90;;;;;;5037337;28;20370;-70
2022/09/02 04:43:51;;;;;;;;;;;11.50;99.90;;;;;;5034273;28;20286;-69
2022/09/02 04:46:17;;;;;;;;;;;11.50;99.90;;;;;;5033481;28;19925;-70
2022/09/02 04:48:43;;;;;;;;;;;11.50;99.90;;;;;;5033794;28;19932;-70
2022/09/02 04:51:09;;;;;;;;;;;11.50;99.90;;;;;;5030821;28;19932;-70
2022/09/02 04:53:35;;;;;;;;;;;11.50;99.90;;;;;;5033335;28;19929;-70
2022/09/02 04:56:05;;;;;;;;;;;11.50;99.90;;;;;;5052876;28;19995;-70
2022/09/02 04:58:30;;;;;;;;;;;11.50;99.90;;;;;;5046204;28;19921;-70
2022/09/02 05:00:55;;;;;;;;;;;11.50;99.90;;;;;;5015515;28;19924;-70
2022/09/02 05:03:23;;;;;;;;;;;11.50;99.90;;;;;;5033767;28;19925;-70
2022/09/02 05:05:57;;;;;;;;;;;11.50;99.90;;;;;;5040423;28;19925;-70
2022/09/02 05:08:22;;;;;;;;;;;11.50;99.90;;;;;;5052345;28;19920;-70
2022/09/02 05:10:49;;;;;;;;;;;11.50;99.90;;;;;;5039994;28;19934;-70
2022/09/02 05:13:14;;;;;;;;;;;11.60;99.90;;;;;;5035148;28;20408;-70
2022/09/02 05:15:42;;;;;;;;;;;11.60;99.90;;;;;;5032882;28;19925;-70
2022/09/02 05:18:07;;;;;;;;;;;11.60;99.90;;;;;;5041488;28;20329;-70
2022/09/02 05:20:33;;;;;;;;;;;11.60;99.90;;;;;;5032536;28;19925;-70
2022/09/02 05:22:58;;;;;;;;;;;11.60;99.90;;;;;;5033134;28;19924;-70
2022/09/02 05:25:24;;;;;;;;;;;11.70;99.90;;;;;;5032260;28;19968;-70
2022/09/02 05:27:49;;;;;;;;;;;11.70;99.90;;;;;;5032160;28;19921;-69
2022/09/02 05:30:15;;;;;;;;;;;11.80;99.90;;;;;;5015195;28;20256;-70
2022/09/02 05:32:41;;;;;;;;;;;11.80;99.90;;;;;;5029152;28;19921;-70
2022/09/02 05:35:06;;;;;;;;;;;11.80;99.90;;;;;;5035652;28;20514;-71
2022/09/02 05:37:33;;;;;;;;;;;11.80;99.90;;;;;;5013542;28;19933;-70
2022/09/02 05:39:58;;;;;;;;;;;11.90;99.90;;;;;;5031829;28;20123;-69
2022/09/02 05:42:24;;;;;;;;;;;11.90;99.90;;;;;;5027371;28;19943;-69
2022/09/02 05:44:50;;;;;;;;;;;12.00;99.90;;;;;;5049813;28;20499;-70
2022/09/02 05:47:15;;;;;;;;;;;12.10;99.90;;;;;;5031799;28;19925;-69
2022/09/02 05:49:41;;;;;;;;;;;12.30;99.90;;;;;;5032342;28;19975;-71
2022/09/02 05:52:10;;;;;;;;;;;13.20;99.90;;;;;;5048015;28;19927;-70
2022/09/02 05:54:37;;;;;;;;;;;14.40;99.90;;;;;;5047123;28;19932;-70
2022/09/02 05:57:05;;;;;;;;;;;15.50;99.90;;;;;;5033078;28;20393;-70
2022/09/02 05:59:40;;;;;;;;;;;16.50;99.90;;;;;;5032581;28;19931;-71
2022/09/02 06:02:10;;;;;;;;;;;17.20;99.90;;;;;;5040376;28;19921;-71
2022/09/02 06:04:36;;;;;;;;;;;18.10;98.30;;;;;;5047093;28;19928;-71
2022/09/02 06:07:02;;;;;;;;;;;18.60;95.60;;;;;;5033636;28;19947;-71
2022/09/02 06:09:27;;;;;;;;;;;19.10;95.40;;;;;;5015782;28;19921;-71
2022/09/02 06:11:53;;;;;;;;;;;19.60;94.80;;;;;;5050031;28;19928;-71
2022/09/02 06:14:20;;;;;;;;;;;20.00;93.80;;;;;;5050719;28;20014;-71
2022/09/02 06:16:46;;;;;;;;;;;20.40;91.40;;;;;;5037697;28;19924;-71
2022/09/02 06:19:12;;;;;;;;;;;20.60;90.70;;;;;;5012372;28;19920;-70
2022/09/02 06:21:37;;;;;;;;;;;21.20;90.80;;;;;;5033247;28;19932;-70
2022/09/02 06:24:06;;;;;;;;;;;21.20;87.70;;;;;;5030977;28;19975;-71
2022/09/02 06:26:32;;;;;;;;;;;21.30;88.20;;;;;;5033162;28;20011;-72
2022/09/02 06:28:58;;;;;;;;;;;22.00;86.80;;;;;;5031364;28;20004;-72
2022/09/02 06:31:23;;;;;;;;;;;22.40;88.00;;;;;;5015000;28;20007;-71
2022/09/02 06:33:53;;;;;;;;;;;22.60;87.10;;;;;;5044220;28;19975;-72
2022/09/02 06:36:20;;;;;;;;;;;22.30;83.10;;;;;;5048795;28;19929;-71
2022/09/02 06:38:47;;;;;;;;;;;22.90;86.20;;;;;;5051304;22;19924;-71
2022/09/02 06:41:14;;;;;;;;;;;22.90;83.40;;;;;;5062503;28;20806;-71
2022/09/02 06:43:39;;;;;;;;;;;23.20;81.70;;;;;;5066171;28;19928;-70
2022/09/02 06:46:06;;;;;;;;;;;23.70;82.70;;;;;;5068081;28;19920;-71
2022/09/02 06:48:31;;;;;;;;;;;23.30;80.60;;;;;;5055464;28;20385;-71
2022/09/02 06:50:57;;;;;;;;;;;23.30;82.70;;;;;;5066329;28;19921;-72
2022/09/02 06:53:23;;;;;;;;;;;23.80;82.30;;;;;;5063568;28;19983;-72
2022/09/02 06:55:49;;;;;;;;;;;23.90;80.30;;;;;;5068386;28;19936;-71
2022/09/02 06:58:14;;;;;;;;;;;24.10;78.70;;;;;;5051783;28;19920;-72
2022/09/02 07:00:40;;;;;;;;;;;24.40;77.20;;;;;;5070104;28;19973;-72
2022/09/02 07:06:02;;;;;;;;;;;24.90;78.10;;;;;;5050393;28;20023;-70
2022/09/02 07:08:28;;;;;;;;;;;24.90;77.60;;;;;;5053289;28;19924;-70
2022/09/02 07:10:53;;;;;;;;;;;24.50;77.10;;;;;;5068467;28;19926;-70
2022/09/02 07:13:19;;;;;;;;;;;24.60;77.60;;;;;;5069905;28;19956;-70
2022/09/02 07:15:44;;;;;;;;;;;24.20;76.20;;;;;;5068714;28;19925;-70
2022/09/02 07:18:10;;;;;;;;;;;24.70;77.40;;;;;;5055785;28;19928;-70
2022/09/02 07:20:35;;;;;;;;;;;24.30;75.90;;;;;;5045010;28;20003;-70
2022/09/02 07:23:01;;;;;;;;;;;24.60;75.40;;;;;;5051604;28;19947;-70
2022/09/02 07:25:26;;;;;;;;;;;24.80;75.90;;;;;;5067752;28;20269;-70
2022/09/02 07:27:53;;;;;;;;;;;25.20;73.60;;;;;;5052496;28;19959;-70
2022/09/02 07:30:18;;;;;;;;;;;25.00;74.10;;;;;;5054076;28;19921;-70
2022/09/02 07:32:44;;;;;;;;;;;24.90;75.10;;;;;;5052674;28;20563;-69
2022/09/02 07:35:09;;;;;;;;;;;25.00;74.80;;;;;;5069338;28;20294;-69
2022/09/02 07:37:36;;;;;;;;;;;24.60;73.70;;;;;;5069558;28;19931;-70
2022/09/02 07:40:03;;;;;;;;;;;24.40;74.00;;;;;;5048876;28;20014;-70
2022/09/02 07:42:29;;;;;;;;;;;24.30;76.20;;;;;;5032995;28;20023;-70
2022/09/02 07:44:54;;;;;;;;;;;24.30;75.70;;;;;;5047711;28;20011;-70
2022/09/02 07:47:20;;;;;;;;;;;23.90;76.70;;;;;;5039819;28;19932;-70
2022/09/02 07:49:45;;;;;;;;;;;23.00;77.50;;;;;;5036844;28;19927;-70
2022/09/02 07:52:11;;;;;;;;;;;22.00;79.50;;;;;;5049591;28;20571;-69
2022/09/02 07:54:36;;;;;;;;;;;21.60;81.70;;;;;;5037716;28;19936;-69
2022/09/02 07:57:02;;;;;;;;;;;21.10;82.50;;;;;;5046799;28;19925;-69
2022/09/02 07:59:27;;;;;;;;;;;20.70;83.50;;;;;;5051265;28;19925;-69
2022/09/02 08:01:53;;;;;;;;;;;20.30;85.00;;;;;;5043665;28;19921;-70
2022/09/02 08:04:22;;;;;;;;;;;20.20;85.70;;;;;;5050776;28;19921;-68
2022/09/02 08:06:47;;;;;;;;;;;20.20;85.20;;;;;;5051375;28;20000;-68
2022/09/02 08:09:13;;;;;;;;;;;20.00;86.30;;;;;;5051280;28;20007;-68
2022/09/02 08:11:40;;;;;;;;;;;19.80;87.50;;;;;;5048380;28;19962;-68
2022/09/02 08:14:07;;;;;;;;;;;20.00;87.20;;;;;;5054890;28;20017;-68
2022/09/02 08:16:33;;;;;;;;;;;19.70;87.60;;;;;;5046914;28;19982;-68
2022/09/02 08:18:58;;;;;;;;;;;19.70;88.40;;;;;;5049488;28;19928;-69
2022/09/02 08:21:27;;;;;;;;;;;19.70;88.90;;;;;;5050550;28;19937;-69
2022/09/02 08:23:52;;;;;;;;;;;19.90;88.30;;;;;;5051934;28;19920;-68
2022/09/02 08:26:18;;;;;;;;;;;20.00;87.70;;;;;;5050650;28;19983;-69
2022/09/02 08:28:44;;;;;;;;;;;20.10;87.40;;;;;;5033288;28;20416;-69
2022/09/02 08:31:09;;;;;;;;;;;20.00;86.10;;;;;;5051232;28;19924;-69
2022/09/02 08:33:35;;;;;;;;;;;20.00;88.20;;;;;;5042653;28;20011;-69
2022/09/02 08:36:02;;;;;;;;;;;20.10;88.80;;;;;;5053246;28;19925;-69
2022/09/02 08:38:27;;;;;;;;;;;20.30;87.20;;;;;;5031568;28;19924;-69
2022/09/02 08:40:52;;;;;;;;;;;20.30;86.60;;;;;;5039117;28;19931;-69
2022/09/02 08:43:36;;;;;;;;;;;20.40;87.60;;;;;;5051411;28;20015;-69
2022/09/02 08:46:03;;;;;;;;;;;20.30;86.20;;;;;;5051744;28;19920;-69
2022/09/02 08:48:34;;;;;;;;;;;20.20;85.90;;;;;;5051684;28;19921;-69
2022/09/02 08:51:02;;;;;;;;;;;20.40;87.90;;;;;;5055986;28;19920;-69
2022/09/02 08:53:35;;;;;;;;;;;20.40;88.20;;;;;;5049801;28;19929;-69
2022/09/02 08:56:02;;;;;;;;;;;20.60;87.00;;;;;;5047387;28;19964;-69
2022/09/02 08:58:32;;;;;;;;;;;20.70;87.00;;;;;;5053483;28;19920;-69
2022/09/02 09:01:02;;;;;;;;;;;20.70;86.00;;;;;;5044300;28;19925;-68
2022/09/02 09:03:32;;;;;;;;;;;20.90;86.40;;;;;;5047320;28;20255;-69
2022/09/02 09:06:11;;;;;;;;;;;21.00;86.30;;;;;;5051656;28;20028;-69
2022/09/02 09:08:51;;;;;;;;;;;21.10;86.50;;;;;;5051915;28;19925;-69
2022/09/02 09:11:16;;;;;;;;;;;21.10;86.00;;;;;;5053487;28;19994;-69
2022/09/02 09:13:45;;;;;;;;;;;21.10;85.30;;;;;;5053085;28;19928;-69
2022/09/02 09:16:13;;;;;;;;;;;21.40;84.30;;;;;;5051696;28;20390;-69
2022/09/02 09:18:42;;;;;;;;;;;21.40;84.90;;;;;;5049339;28;19952;-69
2022/09/02 09:21:08;;;;;;;;;;;21.40;83.60;;;;;;5051728;28;19967;-69
2022/09/02 09:23:36;;;;;;;;;;;21.60;84.40;;;;;;5047452;28;19920;-69
2022/09/02 09:26:09;;;;;;;;;;;21.60;82.30;;;;;;5052928;28;19921;-69
2022/09/02 09:28:40;;;;;;;;;;;21.60;81.00;;;;;;5048859;28;19929;-69
2022/09/02 09:31:09;;;;;;;;;;;21.60;83.50;;;;;;5048889;28;20382;-69
2022/09/02 09:33:34;;;;;;;;;;;21.70;83.80;;;;;;5049591;28;19927;-67
2022/09/02 09:36:02;;;;;;;;;;;21.70;81.80;;;;;;5049415;28;20344;-67
2022/09/02 09:38:29;;;;;;;;;;;21.80;84.30;;;;;;5057422;28;19925;-67
2022/09/02 09:41:10;;;;;;;;;;;22.00;83.90;;;;;;5071112;28;19924;-68
2022/09/02 09:43:35;;;;;;;;;;;22.00;81.50;;;;;;5071572;28;20255;-69
2022/09/02 09:46:18;;;;;;;;;;;22.10;82.80;;;;;;5067383;28;19935;-68
2022/09/02 09:48:48;;;;;;;;;;;22.30;83.00;;;;;;5057488;28;19938;-68
2022/09/02 09:51:14;;;;;;;;;;;22.40;81.00;;;;;;5068633;28;19920;-68
2022/09/02 09:53:40;;;;;;;;;;;22.50;82.90;;;;;;5068242;28;20019;-68
2022/09/02 09:56:21;;;;;;;;;;;22.40;80.90;;;;;;5069440;28;20065;-68
2022/09/02 09:58:47;;;;;;;;;;;22.50;81.50;;;;;;5069030;28;19924;-68
2022/09/02 10:01:23;;;;;;;;;;;22.60;80.00;;;;;;5067980;28;20015;-68
2022/09/02 10:03:59;;;;;;;;;;;22.70;79.30;;;;;;5067801;28;19928;-68
2022/09/02 10:06:28;;;;;;;;;;;22.80;81.70;;;;;;5055986;28;19931;-68
2022/09/02 10:09:13;;;;;;;;;;;22.90;80.60;;;;;;5069553;28;20560;-68
2022/09/02 10:11:53;;;;;;;;;;;22.90;77.30;;;;;;5053332;28;20107;-68
2022/09/02 10:14:18;;;;;;;;;;;22.90;77.30;;;;;;5070437;28;19932;-69
2022/09/02 10:16:50;;;;;;;;;;;23.10;78.10;;;;;;5064334;28;19920;-68
2022/09/02 10:19:19;;;;;;;;;;;23.00;76.10;;;;;;5069957;28;19990;-68
2022/09/02 10:22:03;;;;;;;;;;;23.20;75.20;;;;;;5066106;28;20400;-68
2022/09/02 10:24:30;;;;;;;;;;;23.40;75.20;;;;;;5067140;28;19950;-68
2022/09/02 10:26:57;;;;;;;;;;;23.40;76.60;;;;;;5067768;28;19925;-68
2022/09/02 10:29:29;;;;;;;;;;;23.30;75.50;;;;;;5069698;28;19921;-68
2022/09/02 10:32:13;;;;;;;;;;;23.40;77.70;;;;;;5050870;28;19920;-68
2022/09/02 10:34:55;;;;;;;;;;;23.40;74.80;;;;;;5068286;28;19986;-68
2022/09/02 10:37:25;;;;;;;;;;;23.40;72.50;;;;;;5071591;28;19921;-67
2022/09/02 10:40:03;;;;;;;;;;;23.60;73.10;;;;;;5069598;28;19975;-68
2022/09/02 10:42:34;;;;;;;;;;;23.40;70.10;;;;;;5069362;28;19920;-68
2022/09/02 10:45:16;;;;;;;;;;;23.40;71.40;;;;;;5052235;28;20031;-68
2022/09/02 10:47:45;;;;;;;;;;;23.60;75.30;;;;;;5068573;28;19978;-67
2022/09/02 10:50:16;;;;;;;;;;;23.70;73.30;;;;;;5062732;28;20285;-68
2022/09/02 10:52:48;;;;;;;;;;;23.60;74.10;;;;;;5064992;28;20369;-67
2022/09/02 10:55:20;;;;;;;;;;;23.60;71.50;;;;;;5068393;28;20417;-67
2022/09/02 10:57:55;;;;;;;;;;;23.70;72.00;;;;;;5068153;28;19940;-68
2022/09/02 11:00:21;;;;;;;;;;;23.90;70.50;;;;;;5067251;28;20400;-67
2022/09/02 11:02:54;;;;;;;;;;;24.00;74.10;;;;;;5067614;28;19920;-68
2022/09/02 11:05:23;;;;;;;;;;;24.10;71.10;;;;;;5065844;28;19924;-69
2022/09/02 11:08:08;;;;;;;;;;;24.00;68.10;;;;;;5063098;28;19978;-69
2022/09/02 11:10:36;;;;;;;;;;;24.20;72.90;;;;;;5064357;28;19921;-68
2022/09/02 11:13:11;;;;;;;;;;;24.10;68.80;;;;;;5065105;28;19974;-68
2022/09/02 11:15:44;;;;;;;;;;;24.10;66.50;;;;;;5064784;28;19928;-68
2022/09/02 11:18:17;;;;;;;;;;;24.10;68.60;;;;;;5068955;28;19928;-68
2022/09/02 11:20:47;;;;;;;;;;;24.20;67.90;;;;;;5071314;28;19990;-67
2022/09/02 11:23:31;;;;;;;;;;;24.00;67.60;;;;;;5067935;28;19920;-67
2022/09/02 11:26:10;;;;;;;;;;;24.10;66.10;;;;;;5065523;28;20262;-68
2022/09/02 11:28:38;;;;;;;;;;;24.10;70.40;;;;;;5061748;28;19957;-68
2022/09/02 11:31:09;;;;;;;;;;;24.20;70.20;;;;;;5072504;28;19963;-68
2022/09/02 11:33:44;;;;;;;;;;;24.20;66.10;;;;;;5060971;28;19943;-67
2022/09/02 11:36:10;;;;;;;;;;;24.30;65.50;;;;;;5073867;28;20019;-68
2022/09/02 11:38:41;;;;;;;;;;;24.40;69.70;;;;;;5072530;28;20009;-67
2022/09/02 11:41:29;;;;;;;;;;;24.50;66.00;;;;;;5071848;28;20419;-67
2022/09/02 11:44:00;;;;;;;;;;;24.40;65.60;;;;;;5063669;28;19921;-67
2022/09/02 11:46:35;;;;;;;;;;;24.60;67.60;;;;;;5072583;28;19973;-67
2022/09/02 11:49:13;;;;;;;;;;;24.60;65.50;;;;;;5074208;28;19921;-68
2022/09/02 11:51:38;;;;;;;;;;;24.60;66.80;;;;;;5059376;28;19928;-67
2022/09/02 11:54:05;;;;;;;;;;;24.70;67.80;;;;;;5073055;28;19924;-68
2022/09/02 11:56:35;;;;;;;;;;;24.70;66.60;;;;;;5062504;28;19924;-67
2022/09/02 11:59:01;;;;;;;;;;;24.80;67.80;;;;;;5065536;28;19936;-67
2022/09/02 12:01:37;;;;;;;;;;;24.70;63.20;;;;;;5049667;28;20011;-67
2022/09/02 12:04:20;;;;;;;;;;;24.90;69.30;;;;;;5068396;28;19925;-69
2022/09/02 12:07:07;;;;;;;;;;;25.00;64.70;;;;;;5071366;28;20435;-68
2022/09/02 12:09:42;;;;;;;;;;;25.00;64.50;;;;;;5069254;28;19924;-68
2022/09/02 12:12:08;;;;;;;;;;;25.00;65.50;;;;;;5064188;28;20332;-68
2022/09/02 12:14:46;;;;;;;;;;;25.20;70.10;;;;;;5064739;28;19963;-68
2022/09/02 12:17:36;;;;;;;;;;;25.10;66.10;;;;;;5073136;28;19920;-68
2022/09/02 12:20:07;;;;;;;;;;;25.10;67.10;;;;;;5073000;28;20306;-68
2022/09/02 12:22:37;;;;;;;;;;;25.00;64.40;;;;;;5054687;28;19920;-68
2022/09/02 12:25:04;;;;;;;;;;;25.10;64.10;;;;;;5063450;28;19944;-68
2022/09/02 12:27:36;;;;;;;;;;;25.10;65.80;;;;;;5058105;28;19953;-69
2022/09/02 12:30:08;;;;;;;;;;;25.00;62.50;;;;;;5070665;28;19921;-68
2022/09/02 12:32:46;;;;;;;;;;;25.10;65.30;;;;;;5071458;28;20428;-69
2022/09/02 12:35:27;;;;;;;;;;;25.10;64.10;;;;;;5072863;28;19932;-68
2022/09/02 12:38:13;;;;;;;;;;;25.20;67.10;;;;;;5079265;22;19905;-68
2022/09/02 12:40:48;;;;;;;;;;;25.20;62.00;;;;;;5045940;28;20777;-67
2022/09/02 12:43:32;;;;;;;;;;;25.30;62.50;;;;;;5073454;28;20005;-67
2022/09/02 12:46:36;;;;;;;;;;;25.40;68.20;;;;;;5053178;28;19927;-67
2022/09/02 12:49:12;;;;;;;;;;;25.40;63.10;;;;;;4983827;28;19925;-67
2022/09/02 12:52:04;;;;;;;;;;;25.30;61.60;;;;;;4986216;28;19926;-68
2022/09/02 12:54:29;;;;;;;;;;;25.40;67.10;;;;;;5033134;28;19974;-69
2022/09/02 12:56:55;;;;;;;;;;;25.40;68.00;;;;;;5053781;28;19983;-69
2022/09/02 12:59:27;;;;;;;;;;;25.30;61.00;;;;;;5051866;28;19928;-68
2022/09/02 13:01:55;;;;;;;;;;;25.40;61.70;;;;;;5055353;28;19920;-68
2022/09/02 13:04:27;;;;;;;;;;;25.40;66.90;;;;;;5073227;28;19994;-69
2022/09/02 13:07:10;;;;;;;;;;;25.50;65.00;;;;;;5063073;28;19928;-69
2022/09/02 13:09:39;;;;;;;;;;;25.40;60.00;;;;;;5044348;28;20007;-69
2022/09/02 13:12:23;;;;;;;;;;;25.50;60.70;;;;;;5071759;28;19920;-69
2022/09/02 13:14:52;;;;;;;;;;;25.70;65.80;;;;;;5055044;28;19928;-68
2022/09/02 13:17:23;;;;;;;;;;;25.60;60.90;;;;;;5071712;28;19935;-68
2022/09/02 13:20:07;;;;;;;;;;;25.70;63.40;;;;;;5038671;28;20003;-69
2022/09/02 13:22:49;;;;;;;;;;;25.70;61.00;;;;;;5036142;28;19974;-68
2022/09/02 13:25:35;;;;;;;;;;;25.60;60.00;;;;;;5062948;28;19974;-69
2022/09/02 13:28:00;;;;;;;;;;;25.70;66.10;;;;;;5059838;28;19925;-69
2022/09/02 13:30:46;;;;;;;;;;;25.60;59.40;;;;;;5069496;28;19924;-69
2022/09/02 13:33:12;;;;;;;;;;;25.70;67.10;;;;;;5036467;28;19925;-70
2022/09/02 13:35:39;;;;;;;;;;;25.80;68.30;;;;;;5054119;28;20270;-68
2022/09/02 13:38:08;;;;;;;;;;;25.80;62.20;;;;;;5052465;28;19931;-69
2022/09/02 13:40:35;;;;;;;;;;;25.70;60.60;;;;;;5052800;28;19921;-68
2022/09/02 13:43:02;;;;;;;;;;;25.60;62.40;;;;;;5051832;28;19924;-69
2022/09/02 13:45:29;;;;;;;;;;;25.50;60.50;;;;;;5070897;28;19977;-69
2022/09/02 13:47:56;;;;;;;;;;;25.40;58.40;;;;;;5071086;28;19920;-69
2022/09/02 13:50:23;;;;;;;;;;;25.40;65.40;;;;;;5053962;28;20441;-69
2022/09/02 13:52:53;;;;;;;;;;;25.60;67.40;;;;;;5053239;28;19942;-69
2022/09/02 13:55:19;;;;;;;;;;;25.80;68.20;;;;;;5051639;28;19925;-69
2022/09/02 13:57:50;;;;;;;;;;;25.90;64.00;;;;;;5070436;28;19920;-69
2022/09/02 14:00:24;;;;;;;;;;;25.90;67.00;;;;;;5071033;28;19950;-69
2022/09/02 14:02:54;;;;;;;;;;;25.70;60.40;;;;;;5037870;28;19927;-69
2022/09/02 14:05:20;;;;;;;;;;;25.40;63.00;;;;;;5050173;28;19931;-69
2022/09/02 14:07:48;;;;;;;;;;;25.10;60.70;;;;;;5035603;28;19920;-68
2022/09/02 14:10:18;;;;;;;;;;;25.00;64.20;;;;;;5053005;28;19948;-68
2022/09/02 14:12:44;;;;;;;;;;;24.90;61.90;;;;;;5069599;28;19959;-69
2022/09/02 14:15:12;;;;;;;;;;;24.90;60.10;;;;;;5066439;28;20350;-68
2022/09/02 14:17:37;;;;;;;;;;;25.10;64.60;;;;;;5052278;28;19981;-69
2022/09/02 14:20:07;;;;;;;;;;;25.20;59.50;;;;;;5068507;28;19924;-69
2022/09/02 14:22:34;;;;;;;;;;;25.30;60.90;;;;;;5049307;28;20006;-69
2022/09/02 14:25:07;;;;;;;;;;;25.40;61.60;;;;;;5069013;28;20278;-68
2022/09/02 14:27:32;;;;;;;;;;;25.50;60.30;;;;;;5047805;28;19967;-69
2022/09/02 14:29:58;;;;;;;;;;;25.70;65.40;;;;;;5068877;28;20364;-69